createdAt,value
2019-04-01T00:01:25.877Z,16.65
2019-04-01T00:03:57.417Z,16.35
2019-04-01T00:06:28.857Z,15.80
2019-04-01T00:09:00.237Z,16.40
2019-04-01T00:11:31.799Z,16.93
2019-04-01T00:14:03.408Z,17.57
2019-04-01T00:16:34.725Z,16.52
2019-04-01T00:19:06.389Z,17.23
2019-04-01T00:21:37.920Z,17.17
2019-04-01T00:24:09.557Z,16.42
2019-04-01T00:26:41.182Z,15.58
2019-04-01T00:29:12.907Z,16.65
2019-04-01T00:31:44.428Z,16.35
2019-04-01T00:34:15.988Z,16.15
2019-04-01T00:36:47.319Z,16.48
2019-04-01T00:39:18.534Z,16.27
2019-04-01T00:42:00.632Z,16.55
2019-04-01T00:44:32.182Z,16.15
2019-04-01T00:47:03.641Z,16.50
2019-04-01T00:49:35.022Z,17.62
2019-04-01T00:52:06.279Z,15.85
2019-04-01T00:54:37.647Z,16.12
2019-04-01T00:57:09.283Z,16.90
2019-04-01T00:59:40.542Z,16.48
2019-04-01T01:02:11.741Z,16.52
2019-04-01T01:04:43.338Z,16.70
2019-04-01T01:07:15.038Z,16.50
2019-04-01T01:09:46.330Z,17.30
2019-04-01T01:12:17.818Z,19.62
2019-04-01T01:14:49.299Z,19.05
2019-04-01T01:17:20.623Z,19.40
2019-04-01T01:19:52.088Z,19.92
2019-04-01T01:22:23.658Z,19.73
2019-04-01T01:24:56.218Z,20.48
2019-04-01T01:27:27.564Z,19.75
2019-04-01T01:29:59.030Z,18.27
2019-04-01T01:32:30.375Z,20.20
2019-04-01T01:35:01.813Z,19.48
2019-04-01T01:37:33.351Z,18.42
2019-04-01T01:40:05.018Z,17.92
2019-04-01T01:42:36.469Z,18.77
2019-04-01T01:45:08.118Z,17.55
2019-04-01T01:47:39.632Z,17.82
2019-04-01T01:50:11.446Z,17.67
2019-04-01T01:52:42.971Z,17.52
2019-04-01T01:55:14.565Z,18.02
2019-04-01T01:57:46.137Z,17.32
2019-04-01T02:00:18.347Z,17.00
2019-04-01T02:02:49.574Z,17.05
2019-04-01T02:05:21.101Z,17.57
2019-04-01T02:07:52.513Z,18.20
2019-04-01T02:10:24.054Z,18.23
2019-04-01T02:12:55.562Z,18.75
2019-04-01T02:15:27.169Z,18.92
2019-04-01T02:17:59.110Z,20.32
2019-04-01T02:20:30.422Z,22.07
2019-04-01T02:23:01.745Z,23.42
2019-04-01T02:25:33.202Z,22.05
2019-04-01T02:28:04.728Z,20.92
2019-04-01T02:30:36.157Z,19.85
2019-04-01T02:33:07.564Z,20.55
2019-04-01T02:35:39.084Z,21.07
2019-04-01T02:38:10.309Z,21.23
2019-04-01T02:40:41.855Z,20.05
2019-04-01T02:43:13.125Z,20.85
2019-04-01T02:45:44.377Z,19.80
2019-04-01T02:48:15.850Z,19.65
2019-04-01T02:50:47.415Z,19.30
2019-04-01T02:53:18.659Z,20.72
2019-04-01T02:55:50.068Z,19.07
2019-04-01T02:58:21.475Z,18.37
2019-04-01T03:00:53.150Z,18.23
2019-04-01T03:03:24.395Z,18.27
2019-04-01T03:05:56.068Z,18.10
2019-04-01T03:08:27.533Z,19.52
2019-04-01T03:10:59.107Z,19.70
2019-04-01T03:13:30.692Z,19.15
2019-04-01T03:16:02.298Z,19.30
2019-04-01T03:18:33.733Z,19.52
2019-04-01T03:21:05.203Z,18.98
2019-04-01T03:23:36.503Z,20.15
2019-04-01T03:26:08.714Z,23.62
2019-04-01T03:28:40.457Z,22.20
2019-04-01T03:31:13.038Z,22.70
2019-04-01T03:33:44.762Z,29.05
2019-04-01T03:36:16.136Z,30.40
2019-04-01T03:38:47.472Z,27.95
2019-04-01T03:41:19.814Z,23.40
2019-04-01T03:43:51.329Z,28.15
2019-04-01T03:46:22.951Z,27.07
2019-04-01T03:48:54.423Z,28.65
2019-04-01T03:51:25.812Z,28.87
2019-04-01T03:53:57.652Z,28.75
2019-04-01T03:56:28.990Z,30.45
2019-04-01T03:59:00.572Z,27.80
2019-04-01T04:01:31.975Z,26.73
2019-04-01T04:04:03.359Z,26.12
2019-04-01T04:06:35.078Z,25.77
2019-04-01T04:09:07.585Z,26.65
2019-04-01T04:11:38.812Z,27.27
2019-04-01T04:14:10.373Z,22.77
2019-04-01T04:16:41.579Z,24.43
2019-04-01T04:19:13.018Z,25.23
2019-04-01T04:21:44.538Z,26.45
2019-04-01T04:24:15.754Z,26.75
2019-04-01T04:26:47.314Z,26.23
2019-04-01T04:29:18.767Z,27.02
2019-04-01T04:31:50.210Z,25.48
2019-04-01T04:34:21.711Z,26.10
2019-04-01T04:36:53.600Z,26.87
2019-04-01T04:39:25.443Z,26.57
2019-04-01T04:41:57.155Z,26.62
2019-04-01T04:44:28.658Z,24.70
2019-04-01T04:47:00.159Z,23.05
2019-04-01T04:49:31.583Z,26.02
2019-04-01T04:52:04.627Z,25.75
2019-04-01T04:54:37.135Z,27.13
2019-04-01T04:57:08.424Z,25.27
2019-04-01T04:59:39.810Z,24.37
2019-04-01T05:02:11.403Z,25.80
2019-04-01T05:04:43.047Z,25.70
2019-04-01T05:07:14.527Z,24.40
2019-04-01T05:09:45.878Z,27.45
2019-04-01T05:12:17.100Z,24.67
2019-04-01T05:14:48.751Z,24.72
2019-04-01T05:17:20.053Z,25.68
2019-04-01T05:19:51.600Z,25.82
2019-04-01T05:22:25.357Z,25.40
2019-04-01T05:24:58.053Z,25.10
2019-04-01T05:27:30.899Z,24.30
2019-04-01T05:30:03.883Z,24.23
2019-04-01T05:32:37.495Z,25.23
2019-04-01T05:35:09.113Z,24.80
2019-04-01T05:37:40.873Z,25.82
2019-04-01T05:40:12.374Z,25.60
2019-04-01T05:42:43.864Z,25.70
2019-04-01T05:45:15.595Z,27.35
2019-04-01T05:47:49.888Z,26.60
2019-04-01T05:50:21.281Z,28.70
2019-04-01T05:52:52.846Z,29.45
2019-04-01T05:55:26.050Z,31.93
2019-04-01T05:57:57.809Z,34.67
2019-04-01T06:00:48.499Z,35.48
2019-04-01T06:03:20.081Z,34.23
2019-04-01T06:05:51.541Z,31.45
2019-04-01T06:08:23.030Z,28.62
2019-04-01T06:10:54.702Z,26.60
2019-04-01T06:13:26.330Z,25.25
2019-04-01T06:15:58.545Z,26.25
2019-04-01T06:18:30.085Z,25.05
2019-04-01T06:21:01.841Z,26.37
2019-04-01T06:23:33.450Z,27.48
2019-04-01T06:26:05.012Z,27.90
2019-04-01T06:28:36.457Z,27.67
2019-04-01T06:31:08.284Z,27.77
2019-04-01T06:33:39.665Z,26.73
2019-04-01T06:36:11.466Z,25.43
2019-04-01T06:38:43.188Z,26.00
2019-04-01T06:41:14.442Z,24.17
2019-04-01T06:43:45.989Z,24.80
2019-04-01T06:46:17.233Z,27.03
2019-04-01T06:48:48.521Z,26.83
2019-04-01T06:51:19.831Z,25.93
2019-04-01T06:53:52.695Z,26.77
2019-04-01T06:56:23.960Z,27.63
2019-04-01T06:58:55.503Z,27.80
2019-04-01T07:01:26.754Z,26.70
2019-04-01T07:03:57.871Z,25.80
2019-04-01T07:06:28.922Z,25.60
2019-04-01T07:09:00.196Z,26.47
2019-04-01T07:11:31.485Z,25.87
2019-04-01T07:14:02.782Z,25.17
2019-04-01T07:16:34.073Z,26.80
2019-04-01T07:19:05.463Z,26.53
2019-04-01T07:21:36.871Z,26.30
2019-04-01T07:24:07.875Z,25.27
2019-04-01T07:26:38.953Z,26.43
2019-04-01T07:29:10.281Z,25.57
2019-04-01T07:31:41.887Z,24.97
2019-04-01T07:34:12.921Z,25.60
2019-04-01T07:36:44.146Z,23.53
2019-04-01T07:39:15.222Z,25.40
2019-04-01T07:41:46.434Z,23.43
2019-04-01T07:44:17.767Z,23.10
2019-04-01T07:46:49.105Z,22.93
2019-04-01T07:49:20.447Z,22.17
2019-04-01T07:51:51.782Z,21.77
2019-04-01T07:54:23.028Z,22.50
2019-04-01T07:56:54.511Z,21.80
2019-04-01T07:59:25.634Z,21.27
2019-04-01T08:01:57.212Z,21.43
2019-04-01T08:04:28.415Z,20.37
2019-04-01T08:06:59.767Z,20.00
2019-04-01T08:09:31.269Z,17.13
2019-04-01T08:12:02.647Z,16.50
2019-04-01T08:14:34.007Z,13.47
2019-04-01T08:17:05.330Z,15.23
2019-04-01T08:19:37.384Z,15.83
2019-04-01T08:22:08.619Z,15.37
2019-04-01T08:24:39.732Z,15.20
2019-04-01T08:27:11.174Z,17.37
2019-04-01T08:29:42.641Z,17.50
2019-04-01T08:32:14.194Z,16.90
2019-04-01T08:34:45.725Z,17.53
2019-04-01T08:37:17.201Z,17.63
2019-04-01T08:39:48.340Z,17.93
2019-04-01T08:42:19.538Z,19.27
2019-04-01T08:44:50.920Z,31.30
2019-04-01T08:47:22.266Z,16.33
2019-04-01T08:49:53.632Z,16.67
2019-04-01T08:52:24.747Z,16.77
2019-04-01T08:54:56.056Z,14.80
2019-04-01T08:57:27.294Z,13.70
2019-04-01T08:59:58.613Z,13.97
2019-04-01T09:02:29.770Z,15.63
2019-04-01T09:05:01.052Z,15.17
2019-04-01T09:07:32.091Z,15.27
2019-04-01T09:10:03.276Z,15.40
2019-04-01T09:12:34.390Z,15.00
2019-04-01T09:15:06.250Z,15.50
2019-04-01T09:17:40.331Z,15.17
2019-04-01T09:20:11.676Z,15.53
2019-04-01T09:22:42.680Z,14.63
2019-04-01T09:25:13.945Z,15.37
2019-04-01T09:27:45.397Z,14.43
2019-04-01T09:30:18.640Z,15.73
2019-04-01T09:32:49.852Z,14.37
2019-04-01T09:35:21.365Z,14.27
2019-04-01T09:37:52.739Z,13.87
2019-04-01T09:40:24.140Z,13.17
2019-04-01T09:42:55.533Z,13.47
2019-04-01T09:45:27.089Z,14.63
2019-04-01T09:47:58.496Z,14.73
2019-04-01T09:50:29.760Z,14.07
2019-04-01T09:53:00.955Z,13.53
2019-04-01T09:55:32.291Z,12.63
2019-04-01T09:58:03.303Z,12.60
2019-04-01T10:00:34.521Z,11.73
2019-04-01T10:03:05.662Z,11.13
2019-04-01T10:05:37.045Z,11.77
2019-04-01T10:08:08.302Z,9.27
2019-04-01T10:10:39.362Z,7.37
2019-04-01T10:13:10.555Z,8.20
2019-04-01T10:15:41.991Z,7.90
2019-04-01T10:18:13.031Z,7.13
2019-04-01T10:20:44.180Z,7.17
2019-04-01T10:23:15.149Z,7.03
2019-04-01T10:25:46.410Z,6.27
2019-04-01T10:28:17.672Z,6.20
2019-04-01T10:30:48.823Z,8.00
2019-04-01T10:33:19.947Z,7.70
2019-04-01T10:35:51.195Z,8.23
2019-04-01T10:38:22.431Z,11.47
2019-04-01T10:40:53.517Z,11.07
2019-04-01T10:43:24.593Z,8.97
2019-04-01T10:45:55.866Z,7.83
2019-04-01T10:48:27.218Z,7.90
2019-04-01T10:50:56.916Z,7.90
2019-04-01T10:53:28.417Z,8.23
2019-04-01T10:55:59.707Z,8.37
2019-04-01T10:58:31.409Z,8.27
2019-04-01T11:01:02.919Z,7.40
2019-04-01T11:03:34.400Z,8.10
2019-04-01T11:06:06.026Z,8.20
2019-04-01T11:08:37.313Z,8.30
2019-04-01T11:11:08.469Z,7.90
2019-04-01T11:13:39.909Z,8.53
2019-04-01T11:16:11.388Z,7.37
2019-04-01T11:18:42.437Z,8.47
2019-04-01T11:21:13.705Z,7.97
2019-04-01T11:23:45.150Z,7.07
2019-04-01T11:26:17.895Z,8.33
2019-04-01T11:28:49.233Z,7.40
2019-04-01T11:31:20.467Z,7.83
2019-04-01T11:33:51.537Z,8.03
2019-04-01T11:36:23.349Z,7.90
2019-04-01T11:38:54.904Z,8.30
2019-04-01T11:41:26.245Z,8.60
2019-04-01T11:43:57.477Z,8.40
2019-04-01T11:46:29.049Z,8.47
2019-04-01T11:49:00.376Z,8.00
2019-04-01T11:51:33.708Z,8.27
2019-04-01T11:54:07.979Z,8.47
2019-04-01T11:56:37.347Z,8.03
2019-04-01T11:59:08.793Z,7.97
2019-04-01T12:01:40.209Z,7.87
2019-04-01T12:04:11.537Z,7.47
2019-04-01T12:06:42.739Z,8.23
2019-04-01T12:09:13.917Z,7.83
2019-04-01T12:11:45.178Z,8.60
2019-04-01T12:14:16.569Z,7.30
2019-04-01T12:16:47.870Z,6.93
2019-04-01T12:19:19.040Z,8.27
2019-04-01T12:21:50.154Z,8.20
2019-04-01T12:24:21.214Z,8.13
2019-04-01T12:26:52.248Z,8.50
2019-04-01T12:29:23.340Z,7.97
2019-04-01T12:31:54.360Z,7.80
2019-04-01T12:34:25.556Z,7.47
2019-04-01T12:36:56.860Z,6.80
2019-04-01T12:39:28.093Z,7.73
2019-04-01T12:41:59.888Z,6.77
2019-04-01T12:44:31.334Z,6.87
2019-04-01T12:47:02.671Z,6.97
2019-04-01T12:49:33.868Z,6.57
2019-04-01T12:52:05.157Z,7.33
2019-04-01T12:54:36.255Z,7.63
2019-04-01T12:57:07.510Z,6.67
2019-04-01T12:59:38.555Z,7.80
2019-04-01T13:02:09.989Z,7.03
2019-04-01T13:04:41.239Z,6.90
2019-04-01T13:07:12.584Z,7.10
2019-04-01T13:09:43.467Z,7.30
2019-04-01T13:12:14.411Z,7.60
2019-04-01T13:14:45.294Z,7.10
2019-04-01T13:17:16.526Z,6.37
2019-04-01T13:19:47.692Z,7.07
2019-04-01T13:22:19.127Z,7.50
2019-04-01T13:24:50.301Z,6.83
2019-04-01T13:27:21.662Z,7.50
2019-04-01T13:29:52.941Z,6.90
2019-04-01T13:32:24.278Z,6.87
2019-04-01T13:34:55.346Z,7.23
2019-04-01T13:37:26.441Z,6.83
2019-04-01T13:39:57.617Z,7.10
2019-04-01T13:42:28.785Z,6.63
2019-04-01T13:45:01.811Z,6.53
2019-04-01T13:47:32.609Z,6.67
2019-04-01T13:50:04.052Z,7.30
2019-04-01T13:52:35.137Z,7.17
2019-04-01T13:55:06.400Z,7.70
2019-04-01T13:57:37.661Z,7.00
2019-04-01T14:00:09.471Z,7.00
2019-04-01T14:02:40.566Z,7.40
2019-04-01T14:05:11.829Z,7.53
2019-04-01T14:07:42.813Z,7.03
2019-04-01T14:10:14.479Z,6.57
2019-04-01T14:12:45.566Z,6.70
2019-04-01T14:15:16.764Z,7.00
2019-04-01T14:17:47.836Z,8.03
2019-04-01T14:20:19.375Z,7.27
2019-04-01T14:22:53.577Z,7.67
2019-04-01T14:25:23.700Z,7.50
2019-04-01T14:27:54.932Z,7.53
2019-04-01T14:30:26.552Z,7.73
2019-04-01T14:32:57.797Z,7.67
2019-04-01T14:35:28.910Z,6.93
2019-04-01T14:38:00.266Z,7.93
2019-04-01T14:40:32.735Z,7.93
2019-04-01T14:43:03.912Z,8.43
2019-04-01T14:45:35.494Z,8.00
2019-04-01T14:48:08.582Z,8.20
2019-04-01T14:50:39.827Z,8.23
2019-04-01T14:53:11.007Z,8.47
2019-04-01T14:55:42.255Z,7.77
2019-04-01T14:58:13.644Z,7.30
2019-04-01T15:00:44.590Z,8.13
2019-04-01T15:03:16.101Z,8.83
2019-04-01T15:05:48.982Z,9.53
2019-04-01T15:08:20.104Z,8.80
2019-04-01T15:10:51.452Z,7.97
2019-04-01T15:13:22.651Z,8.27
2019-04-01T15:15:53.672Z,8.17
2019-04-01T15:18:24.706Z,8.57
2019-04-01T15:20:55.776Z,8.77
2019-04-01T15:23:27.462Z,8.60
2019-04-01T15:25:58.978Z,8.90
2019-04-01T15:28:30.575Z,9.00
2019-04-01T15:31:02.649Z,8.47
2019-04-01T15:33:33.941Z,10.30
2019-04-01T15:36:05.397Z,9.80
2019-04-01T15:38:36.607Z,10.37
2019-04-01T15:41:07.580Z,10.87
2019-04-01T15:43:38.606Z,9.47
2019-04-01T15:46:12.949Z,10.37
2019-04-01T15:48:43.848Z,10.87
2019-04-01T15:51:15.209Z,11.47
2019-04-01T15:53:44.375Z,10.50
2019-04-01T15:56:15.413Z,11.07
2019-04-01T15:58:46.627Z,12.37
2019-04-01T16:01:17.810Z,10.57
2019-04-01T16:03:49.220Z,10.73
2019-04-01T16:06:20.412Z,10.87
2019-04-01T16:08:51.673Z,10.63
2019-04-01T16:11:23.249Z,11.70
2019-04-01T16:13:55.992Z,10.83
2019-04-01T16:16:27.161Z,11.17
2019-04-01T16:18:59.263Z,10.70
2019-04-01T16:21:31.508Z,9.73
2019-04-01T16:24:02.718Z,10.57
2019-04-01T16:26:33.651Z,11.57
2019-04-01T16:29:04.746Z,10.53
2019-04-01T16:31:35.650Z,11.90
2019-04-01T16:34:06.538Z,11.93
2019-04-01T16:36:37.397Z,10.97
2019-04-01T16:39:10.441Z,11.43
2019-04-01T16:41:41.570Z,11.37
2019-04-01T16:44:12.563Z,11.17
2019-04-01T16:46:43.898Z,10.40
2019-04-01T16:49:15.118Z,9.90
2019-04-01T16:51:46.493Z,10.17
2019-04-01T16:54:17.595Z,10.70
2019-04-01T16:56:48.749Z,10.03
2019-04-01T16:59:19.767Z,11.43
2019-04-01T17:01:51.378Z,12.93
2019-04-01T17:04:23.846Z,11.17
2019-04-01T17:06:55.007Z,14.23
2019-04-01T17:09:26.211Z,15.97
2019-04-01T17:11:58.988Z,14.70
2019-04-01T17:14:30.324Z,12.80
2019-04-01T17:17:01.309Z,12.43
2019-04-01T17:19:32.529Z,12.27
2019-04-01T17:22:03.827Z,13.03
2019-04-01T17:24:35.001Z,11.63
2019-04-01T17:27:14.322Z,13.57
2019-04-01T17:29:46.911Z,13.40
2019-04-01T17:32:18.212Z,15.10
2019-04-01T17:34:49.574Z,14.07
2019-04-01T17:37:20.624Z,16.23
2019-04-01T17:39:51.720Z,13.87
2019-04-01T17:42:22.882Z,10.70
2019-04-01T17:44:57.240Z,11.33
2019-04-01T17:47:28.308Z,11.83
2019-04-01T17:50:00.233Z,12.20
2019-04-01T17:52:32.380Z,15.33
2019-04-01T17:55:04.583Z,10.57
2019-04-01T17:57:35.564Z,10.23
2019-04-01T18:00:12.265Z,11.20
2019-04-01T18:02:44.077Z,9.93
2019-04-01T18:05:17.664Z,10.93
2019-04-01T18:07:49.808Z,10.77
2019-04-01T18:10:20.979Z,10.27
2019-04-01T18:12:52.456Z,11.10
2019-04-01T18:15:23.871Z,11.70
2019-04-01T18:17:54.965Z,11.23
2019-04-01T18:20:27.784Z,11.80
2019-04-01T18:22:58.722Z,10.80
2019-04-01T18:25:29.999Z,11.57
2019-04-01T18:28:01.326Z,10.70
2019-04-01T18:30:35.135Z,14.10
2019-04-01T18:33:06.335Z,19.07
2019-04-01T18:35:37.622Z,11.67
2019-04-01T18:38:08.631Z,11.90
2019-04-01T18:40:39.635Z,11.87
2019-04-01T18:43:10.791Z,11.60
2019-04-01T18:45:42.315Z,12.90
2019-04-01T18:48:14.819Z,17.80
2019-04-01T18:50:46.097Z,15.00
2019-04-01T18:53:17.405Z,16.27
2019-04-01T18:55:48.311Z,14.60
2019-04-01T18:58:19.162Z,15.20
2019-04-01T19:00:50.370Z,13.67
2019-04-01T19:03:24.055Z,15.27
2019-04-01T19:05:54.412Z,16.30
2019-04-01T19:08:25.573Z,13.73
2019-04-01T19:11:02.514Z,13.87
2019-04-01T19:13:29.368Z,17.00
2019-04-01T19:16:01.637Z,12.37
2019-04-01T19:18:33.460Z,13.97
2019-04-01T19:21:06.009Z,14.37
2019-04-01T19:23:37.202Z,15.67
2019-04-01T19:26:10.142Z,21.67
2019-04-01T19:28:41.193Z,15.47
2019-04-01T19:31:14.327Z,20.67
2019-04-01T19:33:45.566Z,14.20
2019-04-01T19:36:16.929Z,14.57
2019-04-01T19:38:48.119Z,13.50
2019-04-01T19:41:19.521Z,22.23
2019-04-01T19:43:51.590Z,19.07
2019-04-01T19:46:23.083Z,18.10
2019-04-01T19:48:54.317Z,15.53
2019-04-01T19:51:25.510Z,21.70
2019-04-01T19:53:56.771Z,17.33
2019-04-01T19:56:27.898Z,14.53
2019-04-01T19:58:59.450Z,13.53
2019-04-01T20:01:30.641Z,16.77
2019-04-01T20:04:01.883Z,15.20
2019-04-01T20:06:33.097Z,14.30
2019-04-01T20:09:06.180Z,14.20
2019-04-01T20:11:37.361Z,12.67
2019-04-01T20:14:08.568Z,12.67
2019-04-01T20:16:41.102Z,13.13
2019-04-01T20:19:12.472Z,13.43
2019-04-01T20:21:43.531Z,12.03
2019-04-01T20:24:14.970Z,12.53
2019-04-01T20:26:46.214Z,12.63
2019-04-01T20:29:18.211Z,13.00
2019-04-01T20:31:49.299Z,12.73
2019-04-01T20:34:22.401Z,14.37
2019-04-01T20:36:53.116Z,13.77
2019-04-01T20:39:25.277Z,13.30
2019-04-01T20:41:56.757Z,12.70
2019-04-01T20:44:27.900Z,12.43
2019-04-01T20:46:58.966Z,11.90
2019-04-01T20:49:30.275Z,12.53
2019-04-01T20:52:01.650Z,12.43
2019-04-01T20:54:32.766Z,12.60
2019-04-01T20:57:05.219Z,12.10
2019-04-01T20:59:36.528Z,11.60
2019-04-01T21:02:07.674Z,12.07
2019-04-01T21:04:38.929Z,11.47
2019-04-01T21:07:10.177Z,11.40
2019-04-01T21:09:41.026Z,11.13
2019-04-01T21:12:12.097Z,10.30
2019-04-01T21:14:43.154Z,11.13
2019-04-01T21:17:14.471Z,10.83
2019-04-01T21:19:45.593Z,11.10
2019-04-01T21:22:16.672Z,10.83
2019-04-01T21:24:47.913Z,10.67
2019-04-01T21:27:19.090Z,11.20
2019-04-01T21:29:50.228Z,13.23
2019-04-01T21:32:22.360Z,16.20
2019-04-01T21:34:54.039Z,17.67
2019-04-01T21:37:25.252Z,18.67
2019-04-01T21:39:56.378Z,20.00
2019-04-01T21:42:27.580Z,21.10
2019-04-01T21:44:59.019Z,20.00
2019-04-01T21:47:29.902Z,19.93
2019-04-01T21:50:01.109Z,20.83
2019-04-01T21:52:31.975Z,21.53
2019-04-01T21:55:03.265Z,22.67
2019-04-01T21:57:34.164Z,24.27
2019-04-01T22:00:07.383Z,23.02
2019-04-01T22:02:40.821Z,24.47
2019-04-01T22:05:12.534Z,23.45
2019-04-01T22:07:44.091Z,22.95
2019-04-01T22:10:15.476Z,21.85
2019-04-01T22:12:46.827Z,23.40
2019-04-01T22:15:18.835Z,21.37
2019-04-01T22:17:50.218Z,21.62
2019-04-01T22:20:21.718Z,21.82
2019-04-01T22:22:53.326Z,22.60
2019-04-01T22:25:24.701Z,22.37
2019-04-01T22:27:56.228Z,20.80
2019-04-01T22:30:27.939Z,21.50
2019-04-01T22:32:59.358Z,19.90
2019-04-01T22:35:38.453Z,20.02
2019-04-01T22:38:06.200Z,19.02
2019-04-01T22:40:38.010Z,17.25
2019-04-01T22:43:09.371Z,17.65
2019-04-01T22:45:40.785Z,17.55
2019-04-01T22:48:12.028Z,16.12
2019-04-01T22:50:43.194Z,14.87
2019-04-01T22:53:14.684Z,16.25
2019-04-01T22:55:46.284Z,15.95
2019-04-01T22:58:17.771Z,16.02
2019-04-01T23:00:49.066Z,16.02
2019-04-01T23:03:20.286Z,16.05
2019-04-01T23:05:51.623Z,16.05
2019-04-01T23:08:22.903Z,16.10
2019-04-01T23:10:54.316Z,16.32
2019-04-01T23:13:25.591Z,14.87
2019-04-01T23:15:56.947Z,17.50
2019-04-01T23:18:28.091Z,17.00
2019-04-01T23:20:59.255Z,15.75
2019-04-01T23:23:30.630Z,16.67
2019-04-01T23:26:01.897Z,15.65
2019-04-01T23:28:33.301Z,16.10
2019-04-01T23:31:04.771Z,15.65
2019-04-01T23:33:36.252Z,15.43
2019-04-01T23:36:07.718Z,14.90
2019-04-01T23:38:40.113Z,14.68
2019-04-01T23:41:11.698Z,16.80
2019-04-01T23:43:43.121Z,16.35
2019-04-01T23:46:14.491Z,16.77
2019-04-01T23:48:45.957Z,16.27
2019-04-01T23:51:17.254Z,15.88
2019-04-01T23:53:48.520Z,16.20
2019-04-01T23:56:20.076Z,15.88
2019-04-01T23:58:51.627Z,16.15
